createdAt,value
2023-03-15T00:01:19.184Z,1.00
2023-03-15T00:02:01.567Z,1.00
2023-03-15T00:02:41.868Z,1.00
2023-03-15T00:03:24.576Z,1.00
2023-03-15T00:04:11.760Z,1.00
2023-03-15T00:04:55.058Z,1.00
2023-03-15T00:05:35.325Z,1.00
2023-03-15T00:06:15.464Z,1.00
2023-03-15T00:06:55.286Z,1.00
2023-03-15T00:07:42.658Z,1.00
2023-03-15T00:08:23.121Z,1.00
2023-03-15T00:10:06.426Z,1.00
2023-03-15T00:10:47.549Z,1.00
2023-03-15T00:12:05.163Z,1.00
2023-03-15T00:12:51.607Z,1.00
2023-03-15T00:13:40.552Z,1.00
2023-03-15T00:14:20.805Z,1.00
2023-03-15T00:14:59.975Z,1.00
2023-03-15T00:16:09.439Z,1.00
2023-03-15T00:16:49.797Z,1.00
2023-03-15T00:19:10.282Z,1.00
2023-03-15T00:19:52.676Z,1.00
2023-03-15T00:23:18.789Z,1.00
2023-03-15T00:24:02.542Z,1.00
2023-03-15T00:25:19.788Z,1.00
2023-03-15T00:26:00.055Z,1.00
2023-03-15T00:27:03.327Z,1.00
2023-03-15T00:28:22.316Z,1.00
2023-03-15T00:29:01.398Z,1.00
2023-03-15T00:29:40.818Z,1.00
2023-03-15T00:30:43.924Z,1.00
2023-03-15T00:31:25.948Z,1.00
2023-03-15T00:32:05.778Z,1.00
2023-03-15T00:33:06.301Z,1.00
2023-03-15T00:33:46.641Z,1.00
2023-03-15T00:34:32.222Z,1.00
2023-03-15T00:35:55.800Z,1.00
2023-03-15T00:37:56.645Z,1.00
2023-03-15T00:38:38.035Z,1.00
2023-03-15T00:39:18.911Z,1.00
2023-03-15T00:39:59.404Z,1.00
2023-03-15T00:40:38.598Z,1.00
2023-03-15T00:41:25.605Z,1.00
2023-03-15T00:42:04.801Z,1.00
2023-03-15T00:42:50.105Z,1.00
2023-03-15T00:44:43.309Z,1.00
2023-03-15T00:45:22.890Z,1.00
2023-03-15T00:46:02.562Z,1.00
2023-03-15T00:47:54.463Z,1.00
2023-03-15T00:48:36.394Z,1.00
2023-03-15T00:49:23.591Z,1.00
2023-03-15T00:50:10.866Z,1.00
2023-03-15T00:50:59.420Z,1.00
2023-03-15T00:51:39.867Z,1.00
2023-03-15T00:52:58.346Z,1.00
2023-03-15T00:53:41.278Z,1.00
2023-03-15T00:55:52.718Z,1.00
2023-03-15T00:56:41.659Z,1.00
2023-03-15T00:57:46.465Z,1.00
2023-03-15T00:59:04.817Z,1.00
2023-03-15T00:59:45.053Z,1.00
2023-03-15T01:00:25.256Z,1.00
2023-03-15T01:01:27.767Z,1.00
2023-03-15T01:04:05.922Z,1.00
2023-03-15T01:04:45.787Z,1.00
2023-03-15T01:05:26.634Z,1.00
2023-03-15T01:06:09.993Z,1.00
2023-03-15T01:06:51.793Z,1.00
2023-03-15T01:07:33.710Z,1.00
2023-03-15T01:08:15.806Z,1.00
2023-03-15T01:09:26.497Z,1.00
2023-03-15T01:10:07.877Z,1.00
2023-03-15T01:12:13.430Z,1.33
2023-03-15T01:13:16.472Z,2.00
2023-03-15T01:14:14.246Z,2.00
2023-03-15T01:15:30.998Z,2.00
2023-03-15T01:16:14.980Z,2.00
2023-03-15T01:16:57.463Z,2.00
2023-03-15T01:18:01.393Z,2.00
2023-03-15T01:18:41.380Z,2.00
2023-03-15T01:19:47.756Z,2.00
2023-03-15T01:21:33.871Z,2.00
2023-03-15T01:23:17.152Z,2.00
2023-03-15T01:25:47.346Z,2.00
2023-03-15T01:26:29.963Z,2.00
2023-03-15T01:27:01.784Z,2.00
2023-03-15T01:27:33.521Z,2.00
2023-03-15T01:28:05.499Z,1.67
2023-03-15T01:28:37.625Z,1.00
2023-03-15T01:29:17.421Z,1.00
2023-03-15T01:29:56.897Z,1.00
2023-03-15T01:30:39.651Z,1.00
2023-03-15T01:31:26.225Z,1.00
2023-03-15T01:32:06.598Z,1.00
2023-03-15T01:33:09.875Z,1.00
2023-03-15T01:33:50.608Z,1.00
2023-03-15T01:34:29.902Z,1.00
2023-03-15T01:35:11.942Z,1.00
2023-03-15T01:36:08.013Z,1.00
2023-03-15T01:36:39.895Z,1.00
2023-03-15T01:37:14.751Z,1.00
2023-03-15T01:37:50.107Z,1.00
2023-03-15T01:38:21.911Z,1.00
2023-03-15T01:38:55.247Z,1.00
2023-03-15T01:42:07.651Z,1.00
2023-03-15T01:43:29.209Z,1.00
2023-03-15T01:46:25.759Z,1.00
2023-03-15T01:47:07.913Z,1.00
2023-03-15T01:48:02.538Z,1.00
2023-03-15T01:48:50.814Z,1.00
2023-03-15T01:49:34.065Z,1.00
2023-03-15T01:50:11.697Z,1.00
2023-03-15T01:52:17.883Z,1.00
2023-03-15T01:53:25.847Z,1.00
2023-03-15T01:55:11.471Z,1.00
2023-03-15T01:56:35.015Z,1.00
2023-03-15T01:57:13.297Z,1.00
2023-03-15T01:57:51.906Z,1.00
2023-03-15T01:59:43.491Z,1.00
2023-03-15T02:01:37.351Z,1.00
2023-03-15T02:02:22.711Z,1.00
2023-03-15T02:03:14.583Z,1.00
2023-03-15T02:04:03.139Z,1.00
2023-03-15T02:04:57.691Z,1.00
2023-03-15T02:05:47.727Z,1.00
2023-03-15T02:06:28.001Z,1.00
2023-03-15T02:07:10.722Z,1.00
2023-03-15T02:07:50.419Z,1.00
2023-03-15T02:08:35.170Z,1.00
2023-03-15T02:10:07.504Z,1.00
2023-03-15T02:10:54.693Z,1.00
2023-03-15T02:11:35.362Z,1.00
2023-03-15T02:12:16.624Z,1.00
2023-03-15T02:12:56.392Z,1.00
2023-03-15T02:13:38.856Z,1.00
2023-03-15T02:14:19.286Z,1.00
2023-03-15T02:15:03.078Z,1.00
2023-03-15T02:15:46.863Z,1.00
2023-03-15T02:16:30.604Z,1.00
2023-03-15T02:17:52.081Z,1.00
2023-03-15T02:18:35.919Z,1.00
2023-03-15T02:19:49.330Z,1.00
2023-03-15T02:21:09.438Z,1.00
2023-03-15T02:22:39.930Z,1.00
2023-03-15T02:23:24.209Z,1.00
2023-03-15T02:24:59.512Z,1.00
2023-03-15T02:25:58.452Z,1.00
2023-03-15T02:26:40.531Z,1.00
2023-03-15T02:27:28.855Z,1.00
2023-03-15T02:28:53.894Z,1.00
2023-03-15T02:29:33.037Z,1.00
2023-03-15T02:30:16.020Z,1.00
2023-03-15T02:31:38.141Z,1.00
2023-03-15T02:32:18.849Z,1.00
2023-03-15T02:33:00.123Z,1.00
2023-03-15T02:34:04.651Z,1.00
2023-03-15T02:34:44.884Z,1.00
2023-03-15T02:36:23.484Z,1.00
2023-03-15T02:37:45.945Z,1.00
2023-03-15T02:38:27.880Z,1.00
2023-03-15T02:39:45.868Z,1.00
2023-03-15T02:40:28.762Z,1.00
2023-03-15T02:41:57.796Z,1.00
2023-03-15T02:44:33.987Z,1.00
2023-03-15T02:45:14.102Z,1.00
2023-03-15T02:47:06.164Z,1.00
2023-03-15T02:48:11.182Z,1.00
2023-03-15T02:49:36.153Z,1.00
2023-03-15T02:50:22.822Z,1.00
2023-03-15T02:51:02.673Z,1.00
2023-03-15T02:51:43.629Z,1.00
2023-03-15T02:53:04.068Z,1.00
2023-03-15T02:53:50.757Z,1.00
2023-03-15T02:54:29.939Z,1.00
2023-03-15T02:55:09.806Z,1.00
2023-03-15T02:55:58.779Z,1.00
2023-03-15T02:56:46.626Z,1.00
2023-03-15T02:58:05.325Z,1.00
2023-03-15T02:58:48.274Z,1.00
2023-03-15T03:00:14.273Z,1.00
2023-03-15T03:00:54.197Z,1.00
2023-03-15T03:01:37.448Z,1.00
2023-03-15T03:02:18.048Z,1.00
2023-03-15T03:02:58.361Z,1.00
2023-03-15T03:03:43.877Z,1.00
2023-03-15T03:04:23.025Z,1.00
2023-03-15T03:05:03.232Z,1.00
2023-03-15T03:05:44.839Z,1.00
2023-03-15T03:06:23.860Z,1.00
2023-03-15T03:07:12.791Z,1.00
2023-03-15T03:08:02.898Z,1.00
2023-03-15T03:08:42.134Z,1.00
2023-03-15T03:09:24.414Z,1.00
2023-03-15T03:10:07.895Z,1.00
2023-03-15T03:10:47.897Z,1.00
2023-03-15T03:11:29.083Z,1.00
2023-03-15T03:12:07.906Z,1.00
2023-03-15T03:12:53.462Z,2.00
2023-03-15T03:13:32.571Z,2.00
2023-03-15T03:14:14.764Z,2.00
2023-03-15T03:15:59.158Z,2.00
2023-03-15T03:17:18.151Z,2.00
2023-03-15T03:18:01.140Z,2.00
2023-03-15T03:18:41.424Z,2.00
2023-03-15T03:19:25.848Z,2.00
2023-03-15T03:20:17.904Z,2.00
2023-03-15T03:20:59.230Z,1.00
2023-03-15T03:21:37.808Z,1.00
2023-03-15T03:22:16.908Z,1.00
2023-03-15T03:22:56.071Z,1.00
2023-03-15T03:23:38.117Z,1.00
2023-03-15T03:24:20.049Z,1.00
2023-03-15T03:25:01.027Z,1.00
2023-03-15T03:26:46.362Z,1.00
2023-03-15T03:28:05.644Z,1.00
2023-03-15T03:28:48.278Z,1.00
2023-03-15T03:29:31.071Z,1.00
2023-03-15T03:30:58.635Z,1.00
2023-03-15T03:31:39.390Z,1.00
2023-03-15T03:32:19.804Z,1.00
2023-03-15T03:33:01.673Z,1.00
2023-03-15T03:33:41.890Z,1.00
2023-03-15T03:34:21.938Z,1.00
2023-03-15T03:35:01.503Z,1.00
2023-03-15T03:35:44.286Z,1.00
2023-03-15T03:37:03.570Z,1.00
2023-03-15T03:38:24.555Z,1.00
2023-03-15T03:39:43.977Z,1.00
2023-03-15T03:40:22.648Z,1.00
2023-03-15T03:41:01.915Z,1.00
2023-03-15T03:41:41.229Z,1.00
2023-03-15T03:42:24.245Z,1.00
2023-03-15T03:44:04.639Z,1.00
2023-03-15T03:44:44.858Z,1.00
2023-03-15T03:45:26.887Z,1.00
2023-03-15T03:46:06.806Z,1.00
2023-03-15T03:46:45.954Z,1.00
2023-03-15T03:47:50.595Z,1.00
2023-03-15T03:49:08.933Z,1.00
2023-03-15T03:49:47.926Z,1.00
2023-03-15T03:50:28.880Z,1.00
2023-03-15T03:51:10.312Z,1.00
2023-03-15T03:52:02.903Z,1.00
2023-03-15T03:52:45.407Z,1.00
2023-03-15T03:53:26.507Z,1.00
2023-03-15T03:54:05.980Z,1.00
2023-03-15T03:54:54.728Z,1.00
2023-03-15T03:55:34.901Z,1.00
2023-03-15T03:56:15.572Z,1.00
2023-03-15T03:56:54.853Z,1.00
2023-03-15T03:57:33.884Z,1.00
2023-03-15T03:58:12.990Z,1.00
2023-03-15T03:58:52.992Z,1.00
2023-03-15T03:59:39.704Z,1.00
2023-03-15T04:00:20.646Z,1.00
2023-03-15T04:01:01.463Z,1.00
2023-03-15T04:02:19.970Z,1.00
2023-03-15T04:02:58.911Z,1.00
2023-03-15T04:03:38.804Z,1.00
2023-03-15T04:04:17.891Z,1.00
2023-03-15T04:05:00.209Z,1.00
2023-03-15T04:05:42.885Z,1.00
2023-03-15T04:06:37.122Z,1.00
2023-03-15T04:07:28.717Z,1.00
2023-03-15T04:08:09.262Z,1.00
2023-03-15T04:08:49.899Z,1.00
2023-03-15T04:09:30.934Z,1.00
2023-03-15T04:10:14.964Z,1.00
2023-03-15T04:10:57.255Z,1.00
2023-03-15T04:11:36.947Z,1.00
2023-03-15T04:12:18.099Z,1.00
2023-03-15T04:13:49.406Z,1.00
2023-03-15T04:14:28.868Z,1.00
2023-03-15T04:15:17.752Z,1.00
2023-03-15T04:16:06.780Z,1.00
2023-03-15T04:16:46.873Z,1.00
2023-03-15T04:18:06.913Z,1.00
2023-03-15T04:18:56.490Z,1.00
2023-03-15T04:19:36.849Z,2.00
2023-03-15T04:20:17.630Z,2.00
2023-03-15T04:20:59.388Z,2.00
2023-03-15T04:22:07.275Z,2.00
2023-03-15T04:22:47.477Z,2.00
2023-03-15T04:23:28.022Z,2.00
2023-03-15T04:24:07.909Z,2.00
2023-03-15T04:24:46.878Z,2.00
2023-03-15T04:25:26.690Z,2.00
2023-03-15T04:26:06.186Z,2.00
2023-03-15T04:26:45.881Z,2.00
2023-03-15T04:27:24.811Z,2.00
2023-03-15T04:28:05.003Z,2.00
2023-03-15T04:35:02.774Z,1.00
2023-03-15T04:35:54.715Z,1.67
2023-03-15T04:36:34.960Z,9.00
2023-03-15T04:37:13.860Z,26.33
2023-03-15T04:37:53.884Z,45.00
2023-03-15T04:38:35.707Z,63.00
2023-03-15T04:39:14.837Z,79.33
2023-03-15T04:40:18.673Z,89.33
2023-03-15T04:41:39.856Z,101.33
2023-03-15T04:43:43.842Z,90.00
2023-03-15T04:44:22.412Z,80.67
2023-03-15T04:45:04.424Z,75.33
2023-03-15T04:47:05.124Z,66.33
2023-03-15T04:47:44.792Z,64.00
2023-03-15T04:48:33.952Z,57.00
2023-03-15T04:49:13.014Z,47.00
2023-03-15T04:49:53.271Z,40.00
2023-03-15T04:50:31.458Z,33.00
2023-03-15T04:51:20.767Z,28.00
2023-03-15T04:52:07.789Z,23.67
2023-03-15T04:52:51.752Z,21.00
2023-03-15T04:53:30.898Z,17.67
2023-03-15T04:54:12.937Z,15.67
2023-03-15T04:54:52.904Z,13.67
2023-03-15T04:55:31.567Z,12.67
2023-03-15T04:56:10.932Z,11.67
2023-03-15T04:57:29.807Z,9.33
2023-03-15T04:58:09.929Z,7.67
2023-03-15T04:58:49.134Z,7.00
2023-03-15T05:00:19.084Z,6.00
2023-03-15T05:01:00.532Z,6.00
2023-03-15T05:01:41.648Z,5.00
2023-03-15T05:02:34.329Z,5.00
2023-03-15T05:03:14.892Z,4.00
2023-03-15T05:03:55.225Z,4.00
2023-03-15T05:04:34.923Z,4.00
2023-03-15T05:05:23.877Z,4.00
2023-03-15T05:06:08.325Z,3.00
2023-03-15T05:06:55.790Z,3.00
2023-03-15T05:07:35.990Z,3.00
2023-03-15T05:08:15.916Z,3.00
2023-03-15T05:08:55.284Z,3.00
2023-03-15T05:09:46.248Z,2.67
2023-03-15T05:10:25.577Z,2.00
2023-03-15T05:11:11.790Z,2.00
2023-03-15T05:11:51.064Z,2.00
2023-03-15T05:12:39.827Z,2.00
2023-03-15T05:13:21.566Z,2.00
2023-03-15T05:14:01.977Z,2.00
2023-03-15T05:14:41.939Z,2.00
2023-03-15T05:15:22.989Z,2.00
2023-03-15T05:16:03.011Z,2.00
2023-03-15T05:16:43.397Z,2.00
2023-03-15T05:17:22.469Z,2.00
2023-03-15T05:18:02.363Z,2.00
2023-03-15T05:18:43.093Z,2.00
2023-03-15T05:19:23.588Z,2.00
2023-03-15T05:20:41.874Z,2.00
2023-03-15T05:22:01.282Z,1.00
2023-03-15T05:22:41.469Z,1.00
2023-03-15T05:23:22.627Z,1.00
2023-03-15T05:24:25.570Z,1.00
2023-03-15T05:25:06.132Z,1.00
2023-03-15T05:25:55.450Z,1.00
2023-03-15T05:26:35.059Z,1.00
2023-03-15T05:28:53.266Z,1.00
2023-03-15T05:29:56.951Z,1.00
2023-03-15T05:31:00.755Z,1.00
2023-03-15T05:31:41.249Z,1.00
2023-03-15T05:33:47.227Z,1.00
2023-03-15T05:34:26.872Z,1.00
2023-03-15T05:35:10.069Z,1.00
2023-03-15T05:36:28.040Z,1.00
2023-03-15T05:37:08.009Z,1.00
2023-03-15T05:37:50.060Z,1.00
2023-03-15T05:38:36.737Z,1.00
2023-03-15T05:39:16.902Z,1.00
2023-03-15T05:39:57.135Z,1.00
2023-03-15T05:40:46.435Z,1.00
2023-03-15T05:41:34.121Z,1.00
2023-03-15T05:42:26.425Z,1.00
2023-03-15T05:43:08.835Z,1.00
2023-03-15T05:44:00.762Z,1.00
2023-03-15T05:44:40.043Z,1.00
2023-03-15T05:45:20.013Z,1.00
2023-03-15T05:46:01.959Z,1.00
2023-03-15T05:46:42.172Z,1.00
2023-03-15T05:47:23.573Z,1.00
2023-03-15T05:48:03.648Z,1.00
2023-03-15T05:48:44.850Z,1.00
2023-03-15T05:49:23.928Z,1.00
2023-03-15T05:50:05.394Z,1.00
2023-03-15T05:50:45.821Z,1.00
2023-03-15T05:51:28.193Z,1.00
2023-03-15T05:52:44.857Z,1.00
2023-03-15T05:53:48.353Z,1.00
2023-03-15T05:54:27.891Z,1.00
2023-03-15T05:55:08.284Z,1.00
2023-03-15T05:55:46.883Z,1.00
2023-03-15T05:56:26.605Z,1.00
2023-03-15T05:57:07.117Z,1.00
2023-03-15T05:57:47.365Z,1.00
2023-03-15T05:58:27.476Z,1.00
2023-03-15T05:59:07.935Z,1.00
2023-03-15T06:00:10.610Z,1.00
2023-03-15T06:00:51.140Z,1.00
2023-03-15T06:01:30.792Z,1.00
2023-03-15T06:02:10.341Z,1.00
2023-03-15T06:02:52.833Z,1.00
2023-03-15T06:04:34.919Z,1.00
2023-03-15T06:05:52.995Z,1.00
2023-03-15T06:06:56.416Z,1.00
2023-03-15T06:08:56.986Z,1.00
2023-03-15T06:10:17.637Z,1.00
2023-03-15T06:11:37.990Z,1.00
2023-03-15T06:12:18.483Z,1.00
2023-03-15T06:13:36.210Z,1.00
2023-03-15T06:14:15.923Z,1.00
2023-03-15T06:14:55.947Z,1.00
2023-03-15T06:15:35.162Z,1.00
2023-03-15T06:16:14.952Z,1.00
2023-03-15T06:16:55.021Z,1.00
2023-03-15T06:17:34.893Z,1.00
2023-03-15T06:18:14.592Z,1.00
2023-03-15T06:19:18.151Z,1.00
2023-03-15T06:20:35.410Z,1.00
2023-03-15T06:21:16.943Z,1.00
2023-03-15T06:21:57.013Z,1.00
2023-03-15T06:22:38.421Z,1.00
2023-03-15T06:23:18.971Z,1.00
2023-03-15T06:24:43.757Z,1.00
2023-03-15T06:25:24.539Z,1.00
2023-03-15T06:26:08.152Z,1.00
2023-03-15T06:26:57.293Z,1.00
2023-03-15T06:28:01.357Z,1.00
2023-03-15T06:29:21.766Z,1.00
2023-03-15T06:30:00.907Z,1.00
2023-03-15T06:30:49.799Z,1.00
2023-03-15T06:31:30.325Z,1.00
2023-03-15T06:32:12.961Z,1.00
2023-03-15T06:32:55.423Z,1.00
2023-03-15T06:33:37.091Z,1.00
2023-03-15T06:34:17.469Z,1.00
2023-03-15T06:34:57.024Z,1.00
2023-03-15T06:35:35.975Z,1.00
2023-03-15T06:36:18.228Z,1.00
2023-03-15T06:36:58.942Z,1.00
2023-03-15T06:37:42.412Z,1.00
2023-03-15T06:38:21.503Z,1.00
2023-03-15T06:39:02.867Z,1.00
2023-03-15T06:41:01.313Z,1.00
2023-03-15T06:41:42.176Z,1.00
2023-03-15T06:43:06.174Z,1.00
2023-03-15T06:43:46.293Z,1.00
2023-03-15T06:45:05.201Z,1.00
2023-03-15T06:45:46.522Z,1.00
2023-03-15T06:46:27.842Z,1.00
2023-03-15T06:47:08.317Z,1.00
2023-03-15T06:47:48.107Z,1.00
2023-03-15T06:48:28.572Z,1.00
2023-03-15T06:49:07.554Z,1.00
2023-03-15T06:49:50.499Z,1.00
2023-03-15T06:50:40.631Z,1.00
2023-03-15T06:51:27.086Z,1.00
2023-03-15T06:52:08.118Z,1.00
2023-03-15T06:52:57.867Z,1.00
2023-03-15T06:53:38.428Z,1.00
2023-03-15T06:54:17.540Z,1.00
2023-03-15T06:54:58.532Z,1.00
2023-03-15T06:55:38.153Z,1.00
2023-03-15T06:57:37.915Z,1.00
2023-03-15T06:58:17.492Z,1.00
2023-03-15T06:58:57.921Z,1.00
2023-03-15T06:59:38.124Z,1.00
2023-03-15T07:00:22.661Z,1.00
2023-03-15T07:01:15.797Z,1.00
2023-03-15T07:02:19.411Z,1.00
2023-03-15T07:03:39.013Z,1.00
2023-03-15T07:04:26.114Z,1.00
2023-03-15T07:05:58.311Z,1.00
2023-03-15T07:06:38.725Z,1.00
2023-03-15T07:07:22.219Z,1.00
2023-03-15T07:08:01.677Z,1.00
2023-03-15T07:08:41.066Z,1.00
2023-03-15T07:09:21.887Z,1.00
2023-03-15T07:10:00.614Z,1.00
2023-03-15T07:11:04.978Z,1.00
2023-03-15T07:12:22.963Z,1.00
2023-03-15T07:13:50.917Z,1.00
2023-03-15T07:14:37.857Z,1.00
2023-03-15T07:15:17.488Z,1.00
2023-03-15T07:16:21.463Z,1.00
2023-03-15T07:17:42.134Z,1.00
2023-03-15T07:18:22.822Z,1.00
2023-03-15T07:19:03.646Z,1.00
2023-03-15T07:19:55.432Z,1.00
2023-03-15T07:20:37.691Z,1.00
2023-03-15T07:21:17.157Z,1.00
2023-03-15T07:22:11.792Z,1.00
2023-03-15T07:22:54.837Z,1.00
2023-03-15T07:23:43.920Z,1.00
2023-03-15T07:24:22.995Z,1.00
2023-03-15T07:25:07.478Z,1.00
2023-03-15T07:25:55.028Z,1.00
2023-03-15T07:26:39.182Z,1.00
2023-03-15T07:28:20.702Z,1.00
2023-03-15T07:29:01.529Z,1.00
2023-03-15T07:30:21.235Z,1.00
2023-03-15T07:31:04.215Z,1.00
2023-03-15T07:31:46.366Z,1.00
2023-03-15T07:32:26.071Z,1.00
2023-03-15T07:33:08.013Z,1.00
2023-03-15T07:33:48.680Z,1.00
2023-03-15T07:34:28.078Z,1.00
2023-03-15T07:35:11.653Z,1.00
2023-03-15T07:35:54.296Z,1.00
2023-03-15T07:36:35.208Z,1.00
2023-03-15T07:37:15.225Z,1.00
2023-03-15T07:37:54.913Z,1.00
2023-03-15T07:38:36.124Z,1.00
2023-03-15T07:39:16.233Z,1.00
2023-03-15T07:40:00.419Z,1.00
2023-03-15T07:40:40.148Z,1.00
2023-03-15T07:41:19.057Z,1.00
2023-03-15T07:41:59.438Z,1.00
2023-03-15T07:42:40.590Z,1.00
2023-03-15T07:43:20.698Z,1.00
2023-03-15T07:44:38.596Z,1.00
2023-03-15T07:45:22.364Z,1.00
2023-03-15T07:46:42.055Z,1.00
2023-03-15T07:47:20.962Z,1.00
2023-03-15T07:48:03.367Z,1.00
2023-03-15T07:48:43.951Z,1.00
2023-03-15T07:50:09.243Z,1.00
2023-03-15T07:51:12.287Z,1.00
2023-03-15T07:52:32.237Z,1.00
2023-03-15T07:53:11.607Z,1.00
2023-03-15T07:53:51.423Z,1.00
2023-03-15T07:54:32.126Z,1.00
2023-03-15T07:55:11.991Z,1.00
2023-03-15T07:55:53.102Z,1.00
2023-03-15T07:57:12.078Z,1.00
2023-03-15T07:57:53.265Z,1.00
2023-03-15T07:58:33.038Z,1.00
2023-03-15T07:59:13.463Z,1.00
2023-03-15T08:00:34.034Z,1.00
2023-03-15T08:01:55.048Z,1.00
2023-03-15T08:02:34.226Z,1.00
2023-03-15T08:03:24.860Z,1.00
2023-03-15T08:04:05.052Z,1.00
2023-03-15T08:05:29.002Z,1.00
2023-03-15T08:06:08.914Z,1.00
2023-03-15T08:06:49.012Z,1.00
2023-03-15T08:07:28.961Z,1.00
2023-03-15T08:08:09.052Z,1.00
2023-03-15T08:08:48.063Z,1.00
2023-03-15T08:09:30.059Z,1.00
2023-03-15T08:11:12.529Z,1.00
2023-03-15T08:12:31.075Z,1.00
2023-03-15T08:13:11.881Z,1.00
2023-03-15T08:13:53.926Z,1.00
2023-03-15T08:14:37.276Z,1.00
2023-03-15T08:16:04.115Z,1.00
2023-03-15T08:16:44.049Z,1.00
2023-03-15T08:17:23.393Z,1.00
2023-03-15T08:18:07.853Z,1.00
2023-03-15T08:19:49.501Z,1.00
2023-03-15T08:20:29.812Z,1.00
2023-03-15T08:21:12.253Z,1.00
2023-03-15T08:22:38.503Z,1.00
2023-03-15T08:23:22.071Z,1.00
2023-03-15T08:24:25.421Z,1.00
2023-03-15T08:25:54.005Z,1.00
2023-03-15T08:26:33.705Z,1.00
2023-03-15T08:27:16.233Z,1.00
2023-03-15T08:28:36.210Z,1.00
2023-03-15T08:29:17.772Z,1.00
2023-03-15T08:30:01.667Z,1.00
2023-03-15T08:30:44.006Z,1.00
2023-03-15T08:31:23.843Z,1.00
2023-03-15T08:32:27.768Z,1.00
2023-03-15T08:35:07.473Z,1.00
2023-03-15T08:37:29.783Z,1.00
2023-03-15T08:38:10.446Z,1.00
2023-03-15T08:39:14.659Z,1.00
2023-03-15T08:40:32.070Z,1.00
2023-03-15T08:41:11.964Z,1.00
2023-03-15T08:41:52.382Z,1.00
2023-03-15T08:42:32.207Z,1.00
2023-03-15T08:43:12.562Z,1.00
2023-03-15T08:43:53.210Z,1.00
2023-03-15T08:45:12.239Z,1.00
2023-03-15T08:46:30.250Z,1.00
2023-03-15T08:47:10.015Z,1.00
2023-03-15T08:47:49.054Z,1.00
2023-03-15T08:48:30.180Z,1.00
2023-03-15T08:49:09.067Z,1.00
2023-03-15T08:49:48.111Z,1.00
2023-03-15T08:50:28.624Z,1.00
2023-03-15T08:51:09.010Z,1.00
2023-03-15T08:51:48.032Z,1.00
2023-03-15T08:52:27.362Z,1.00
2023-03-15T08:53:08.381Z,1.00
2023-03-15T08:53:48.316Z,1.00
2023-03-15T08:54:31.766Z,1.00
2023-03-15T08:55:34.664Z,1.00
2023-03-15T08:56:13.990Z,1.00
2023-03-15T08:56:53.002Z,1.00
2023-03-15T08:57:33.002Z,1.00
2023-03-15T08:58:14.932Z,1.00
2023-03-15T08:59:28.967Z,1.00
2023-03-15T09:00:34.807Z,1.00
2023-03-15T09:01:53.619Z,1.00
2023-03-15T09:02:32.733Z,1.00
2023-03-15T09:03:12.047Z,1.00
2023-03-15T09:03:51.929Z,1.00
2023-03-15T09:04:34.222Z,1.00
2023-03-15T09:05:16.116Z,1.00
2023-03-15T09:06:00.195Z,1.00
2023-03-15T09:07:18.017Z,1.00
2023-03-15T09:07:58.870Z,1.00
2023-03-15T09:08:39.034Z,1.00
2023-03-15T09:09:19.263Z,1.00
2023-03-15T09:09:59.553Z,1.00
2023-03-15T09:10:40.436Z,1.00
2023-03-15T09:11:59.016Z,1.00
2023-03-15T09:12:38.007Z,1.00
2023-03-15T09:13:16.928Z,1.00
2023-03-15T09:13:56.095Z,1.00
2023-03-15T09:14:58.810Z,1.00
2023-03-15T09:15:39.028Z,1.00
2023-03-15T09:16:17.706Z,1.00
2023-03-15T09:16:57.374Z,1.00
2023-03-15T09:17:37.383Z,1.00
2023-03-15T09:18:19.056Z,1.00
2023-03-15T09:18:57.934Z,1.00
2023-03-15T09:19:38.827Z,1.00
2023-03-15T09:20:42.762Z,1.00
2023-03-15T09:21:22.958Z,1.00
2023-03-15T09:22:16.255Z,1.00
2023-03-15T09:22:58.332Z,1.00
2023-03-15T09:23:37.763Z,1.00
2023-03-15T09:24:18.465Z,1.00
2023-03-15T09:25:50.083Z,1.00
2023-03-15T09:26:32.082Z,1.00
2023-03-15T09:27:12.340Z,1.00
2023-03-15T09:27:53.226Z,1.00
2023-03-15T09:28:33.146Z,1.00
2023-03-15T09:29:15.141Z,1.00
2023-03-15T09:30:35.769Z,1.00
2023-03-15T09:31:15.102Z,1.00
2023-03-15T09:32:04.158Z,1.00
2023-03-15T09:32:44.621Z,1.00
2023-03-15T09:33:26.329Z,1.00
2023-03-15T09:34:09.088Z,1.00
2023-03-15T09:34:52.016Z,1.00
2023-03-15T09:35:43.957Z,1.00
2023-03-15T09:36:23.987Z,1.00
2023-03-15T09:37:03.624Z,1.00
2023-03-15T09:38:39.144Z,1.00
2023-03-15T09:39:58.198Z,1.00
2023-03-15T09:40:49.556Z,1.00
2023-03-15T09:41:45.940Z,1.00
2023-03-15T09:42:45.680Z,1.00
2023-03-15T09:45:56.740Z,1.00
2023-03-15T09:47:41.026Z,1.00
2023-03-15T09:48:26.550Z,1.00
2023-03-15T09:50:15.969Z,1.00
2023-03-15T09:51:48.885Z,1.00
2023-03-15T09:52:36.838Z,1.00
2023-03-15T09:53:32.206Z,1.00
2023-03-15T09:54:44.672Z,1.00
2023-03-15T09:56:04.079Z,1.00
2023-03-15T09:56:57.856Z,1.00
2023-03-15T09:57:50.672Z,1.00
2023-03-15T09:58:35.908Z,1.00
2023-03-15T09:59:26.756Z,1.00
2023-03-15T10:00:13.195Z,1.00
2023-03-15T10:00:58.552Z,1.00
2023-03-15T10:01:48.300Z,1.00
2023-03-15T10:02:31.648Z,1.00
2023-03-15T10:03:17.197Z,1.00
2023-03-15T10:03:58.345Z,1.00
2023-03-15T10:04:46.183Z,1.00
2023-03-15T10:06:17.457Z,1.00
2023-03-15T10:07:00.055Z,1.00
2023-03-15T10:07:39.147Z,1.00
2023-03-15T10:08:19.828Z,1.00
2023-03-15T10:09:07.033Z,1.00
2023-03-15T10:09:47.364Z,1.00
2023-03-15T10:10:26.749Z,1.00
2023-03-15T10:11:20.735Z,1.00
2023-03-15T10:12:26.702Z,1.00
2023-03-15T10:13:29.043Z,1.00
2023-03-15T10:14:08.767Z,1.00
2023-03-15T10:15:25.159Z,1.00
2023-03-15T10:16:05.743Z,1.00
2023-03-15T10:16:47.969Z,1.00
2023-03-15T10:18:00.589Z,1.00
2023-03-15T10:19:05.236Z,1.00
2023-03-15T10:20:13.038Z,1.00
2023-03-15T10:21:51.269Z,1.00
2023-03-15T10:23:00.332Z,1.00
2023-03-15T10:25:18.378Z,1.00
2023-03-15T10:25:57.603Z,1.00
2023-03-15T10:26:40.017Z,1.00
2023-03-15T10:29:03.848Z,1.00
2023-03-15T10:30:31.126Z,1.00
2023-03-15T10:31:36.950Z,1.00
2023-03-15T10:33:08.909Z,1.00
2023-03-15T10:33:50.559Z,1.00
2023-03-15T10:34:29.837Z,1.00
2023-03-15T10:35:18.734Z,1.00
2023-03-15T10:36:10.644Z,1.00
2023-03-15T10:36:57.341Z,1.00
2023-03-15T10:37:38.011Z,1.00
2023-03-15T10:38:25.537Z,1.00
2023-03-15T10:39:06.001Z,1.00
2023-03-15T10:39:49.781Z,1.00
2023-03-15T10:41:08.831Z,1.00
2023-03-15T10:41:52.489Z,1.00
2023-03-15T10:43:27.132Z,1.00
2023-03-15T10:44:45.015Z,1.00
2023-03-15T10:45:25.724Z,1.00
2023-03-15T10:47:19.986Z,1.00
2023-03-15T10:48:02.181Z,1.00
2023-03-15T10:49:08.261Z,1.00
2023-03-15T10:50:30.042Z,1.00
2023-03-15T10:51:31.552Z,1.00
2023-03-15T10:52:35.664Z,1.00
2023-03-15T10:53:15.697Z,1.00
2023-03-15T10:54:20.386Z,1.00
2023-03-15T10:55:05.863Z,1.00
2023-03-15T10:55:49.140Z,1.00
2023-03-15T10:56:32.202Z,1.00
2023-03-15T10:57:19.273Z,1.00
2023-03-15T10:58:18.956Z,1.00
2023-03-15T10:59:11.953Z,1.00
2023-03-15T11:00:36.860Z,1.00
2023-03-15T11:03:54.724Z,1.00
2023-03-15T11:04:42.479Z,1.00
2023-03-15T11:06:01.040Z,1.00
2023-03-15T11:07:18.572Z,1.00
2023-03-15T11:09:23.415Z,1.00
2023-03-15T11:10:07.059Z,1.00
2023-03-15T11:11:25.071Z,1.00
2023-03-15T11:12:08.970Z,1.00
2023-03-15T11:12:49.074Z,1.00
2023-03-15T11:13:33.320Z,1.00
2023-03-15T11:14:23.292Z,1.00
2023-03-15T11:16:05.148Z,1.00
2023-03-15T11:16:56.531Z,1.00
2023-03-15T11:17:44.546Z,1.00
2023-03-15T11:18:48.860Z,1.00
2023-03-15T11:19:31.835Z,1.00
2023-03-15T11:20:19.681Z,1.00
2023-03-15T11:20:58.914Z,1.00
2023-03-15T11:22:02.915Z,1.00
2023-03-15T11:22:42.883Z,1.00
2023-03-15T11:23:29.951Z,1.00
2023-03-15T11:24:30.255Z,1.00
2023-03-15T11:25:17.135Z,1.00
2023-03-15T11:26:06.800Z,1.00
2023-03-15T11:26:52.316Z,1.00
2023-03-15T11:27:34.483Z,1.00
2023-03-15T11:28:27.913Z,1.00
2023-03-15T11:29:22.469Z,1.00
2023-03-15T11:30:04.454Z,1.00
2023-03-15T11:31:16.153Z,1.00
2023-03-15T11:32:03.657Z,1.00
2023-03-15T11:32:43.445Z,1.00
2023-03-15T11:33:29.988Z,1.00
2023-03-15T11:34:35.478Z,1.00
2023-03-15T11:35:33.798Z,1.00
2023-03-15T11:36:22.748Z,1.00
2023-03-15T11:37:13.095Z,1.00
2023-03-15T11:38:15.361Z,1.00
2023-03-15T11:39:05.936Z,1.00
2023-03-15T11:40:14.958Z,1.00
2023-03-15T11:41:38.595Z,1.00
2023-03-15T11:43:34.657Z,1.00
2023-03-15T11:44:58.641Z,1.00
2023-03-15T11:45:47.830Z,1.00
2023-03-15T11:46:48.690Z,1.00
2023-03-15T11:47:39.809Z,1.00
2023-03-15T11:49:22.006Z,1.00
2023-03-15T11:50:02.217Z,1.00
2023-03-15T11:50:42.330Z,1.00
2023-03-15T11:51:22.804Z,1.00
2023-03-15T11:52:27.737Z,1.00
2023-03-15T11:53:06.753Z,1.00
2023-03-15T11:54:12.528Z,1.00
2023-03-15T11:55:32.127Z,1.00
2023-03-15T11:57:03.222Z,1.00
2023-03-15T11:57:49.635Z,1.00
2023-03-15T11:58:30.668Z,1.00
2023-03-15T12:04:21.357Z,1.00
2023-03-15T12:05:06.256Z,20.33
2023-03-15T12:06:12.292Z,60.33
2023-03-15T12:06:54.844Z,106.00
2023-03-15T12:07:56.509Z,134.67
2023-03-15T12:09:02.039Z,155.67
2023-03-15T12:09:41.738Z,159.67
2023-03-15T12:10:45.336Z,155.33
2023-03-15T12:11:34.941Z,140.33
2023-03-15T12:13:17.219Z,120.67
2023-03-15T12:13:58.627Z,100.33